メインページ
METAR-TAF:

METAR-TAF

空港 :

サンクトペテルブルク, ロシア

プルコヴォ空港

緯度: 59-58N, 経度: 030-18E, 海抜: 4m

現時点の気象観測

当レポートは47分前の09:00(UTC)に作成
西の風 6kt
気温 1°C
湿度 75%
気圧 1014 hPa
視程10km以上
高度3600ftの千切れ雲あり

METAR: ULLI 250900Z 27003MPS 9999 BKN036 01/M03 Q1014 R88/090060 NOSIG

時間: 12:47 (09:47 UTC)

予報

当レポートは1時間52分前の07:55(UTC)に作成
予報は25日の 09時(UTC)から 26日の 09時(UTC)まで有効
西/南西の風 6kt、最大16ktの突風を伴う
視程: 6000m
高度1100ftの千切れ雲あり
高度1700ftの千切れ雲あり
25日の 09時(UTC)から 25日の 17時(UTC)まで一時的に
視程: 1200m
高度500ftの千切れ雲あり
高度1500ftの千切れ雲あり, 積乱雲.
弱いにわか雪, 雨, 靄
25日の 17時(UTC)から 25日の 19時(UTC)まで徐々に
北/北西の風 6kt、最大16ktの突風を伴う
25日の 17時(UTC)から 25日の 20時(UTC)まで一時的に
視程: 1200m
高度400ftの千切れ雲あり
高度1200ftの千切れ雲あり, 積乱雲.
弱いにわか雪, 靄
25日の 20時(UTC)から 26日の 06時(UTC)まで一時的に
視程: 0300m
高度200ftの
着氷性の霧

TAF: ULLI 250755Z 2509/2609 24003G08MPS 6000 BKN011 BKN017 TEMPO 2509/2517 1200 -SHSNRA BR BKN005 BKN015CB BECMG 2517/2519 34003G08MPS TEMPO 2517/2520 1200 -SHSN BR BKN004 BKN012CB TEMPO 2520/2606 0300 FZFG VV002

4,000以上の空港の気象観測と天気予報(METAR報とTAF報)

利用可能な観測所は地図上に黄色い丸と赤い丸で示す。

丸の上にカーソルを重ねると観測所名を参照できる。

次にクリックすると気象観測と天気予報を参照できる。

マップの切り替え:黒色「×」印の緑ボタンをクリックして拡大、「-」印の緑ボタンをクリックして縮小、緑色の三角印をクリックして隣りの地図に切り替え


METAR-TAF: